createdAt,value
2019-05-25T00:02:41.750Z,12.00
2019-05-25T00:05:30.413Z,11.90
2019-05-25T00:11:26.615Z,11.70
2019-05-25T00:13:56.270Z,11.70
2019-05-25T00:16:44.995Z,11.70
2019-05-25T00:19:33.827Z,11.60
2019-05-25T00:22:22.542Z,11.50
2019-05-25T00:24:52.182Z,11.40
2019-05-25T00:27:40.902Z,11.30
2019-05-25T00:30:29.657Z,11.20
2019-05-25T00:32:59.280Z,11.20
2019-05-25T00:35:47.975Z,11.20
2019-05-25T00:38:36.703Z,11.10
2019-05-25T00:41:25.546Z,11.10
2019-05-25T00:43:55.187Z,11.10
2019-05-25T00:46:43.934Z,11.00
2019-05-25T00:49:32.577Z,11.00
2019-05-25T00:54:56.683Z,10.90
2019-05-25T00:57:45.404Z,10.80
2019-05-25T01:00:54.388Z,10.80
2019-05-25T01:03:43.109Z,10.80
2019-05-25T01:06:31.751Z,10.70
2019-05-25T01:09:20.489Z,10.70
2019-05-25T01:11:50.123Z,10.70
2019-05-25T01:14:38.795Z,10.60
2019-05-25T01:17:27.438Z,10.60
2019-05-25T01:19:57.164Z,10.50
2019-05-25T01:25:33.383Z,10.50
2019-05-25T01:28:14.311Z,10.50
2019-05-25T01:30:44.146Z,10.50
2019-05-25T01:33:13.756Z,10.50
2019-05-25T01:35:43.373Z,10.50
2019-05-25T01:38:13.073Z,10.50
2019-05-25T01:40:42.690Z,10.50
2019-05-25T01:43:12.345Z,10.50
2019-05-25T01:45:41.998Z,10.40
2019-05-25T01:48:11.610Z,10.40
2019-05-25T01:50:41.306Z,10.30
2019-05-25T01:53:11.668Z,10.30
2019-05-25T01:55:41.481Z,10.30
2019-05-25T01:58:11.143Z,10.30
2019-05-25T02:00:40.736Z,10.20
2019-05-25T02:03:10.400Z,10.10
2019-05-25T02:05:40.007Z,10.00
2019-05-25T02:08:09.658Z,10.00
2019-05-25T02:10:39.278Z,10.10
2019-05-25T02:13:08.887Z,10.10
2019-05-25T02:15:38.584Z,10.00
2019-05-25T02:18:08.239Z,10.00
2019-05-25T02:20:37.840Z,10.00
2019-05-25T02:23:07.487Z,10.00
2019-05-25T02:25:37.130Z,10.00
2019-05-25T02:28:06.770Z,9.90
2019-05-25T02:30:36.376Z,10.00
2019-05-25T02:33:06.049Z,9.90
2019-05-25T02:35:35.657Z,9.90
2019-05-25T02:38:05.361Z,9.90
2019-05-25T02:40:34.999Z,9.90
2019-05-25T02:43:04.687Z,9.90
2019-05-25T02:45:34.301Z,10.00
2019-05-25T02:48:04.249Z,10.00
2019-05-25T02:50:33.845Z,9.90
2019-05-25T02:53:03.462Z,10.00
2019-05-25T02:55:35.008Z,9.90
2019-05-25T02:58:04.394Z,9.90
2019-05-25T03:00:34.886Z,10.00
2019-05-25T03:03:05.630Z,9.90
2019-05-25T03:05:35.353Z,9.90
2019-05-25T03:08:04.991Z,10.00
2019-05-25T03:10:35.118Z,10.00
2019-05-25T03:13:04.835Z,9.90
2019-05-25T03:15:34.504Z,9.90
2019-05-25T03:18:04.340Z,9.90
2019-05-25T03:20:33.961Z,9.90
2019-05-25T03:23:03.617Z,10.00
2019-05-25T03:25:46.781Z,10.00
2019-05-25T03:28:04.544Z,9.90
2019-05-25T03:30:35.453Z,9.90
2019-05-25T03:33:05.569Z,9.90
2019-05-25T03:35:35.200Z,9.90
2019-05-25T03:38:05.059Z,9.90
2019-05-25T03:40:34.681Z,9.90
2019-05-25T03:43:04.342Z,9.90
2019-05-25T03:45:34.020Z,9.90
2019-05-25T03:48:03.739Z,9.90
2019-05-25T03:50:33.321Z,9.80
2019-05-25T03:53:02.945Z,9.80
2019-05-25T03:55:32.577Z,9.90
2019-05-25T03:58:02.154Z,9.80
2019-05-25T04:00:33.961Z,9.90
2019-05-25T04:03:03.555Z,10.00
2019-05-25T04:05:33.183Z,10.10
2019-05-25T04:08:02.953Z,10.10
2019-05-25T04:10:32.412Z,10.00
2019-05-25T04:13:02.104Z,10.20
2019-05-25T04:15:31.753Z,10.20
2019-05-25T04:18:01.350Z,10.30
2019-05-25T04:20:31.012Z,10.30
2019-05-25T04:23:00.623Z,10.40
2019-05-25T04:25:30.287Z,10.40
2019-05-25T04:27:59.908Z,10.50
2019-05-25T04:30:29.582Z,10.60
2019-05-25T04:32:59.232Z,10.50
2019-05-25T04:35:28.852Z,10.50
2019-05-25T04:37:58.468Z,10.60
2019-05-25T04:40:28.128Z,10.70
2019-05-25T04:42:57.831Z,10.70
2019-05-25T04:45:27.533Z,10.70
2019-05-25T04:47:57.234Z,10.90
2019-05-25T04:50:26.856Z,11.00
2019-05-25T04:52:56.525Z,11.00
2019-05-25T04:55:26.785Z,11.20
2019-05-25T04:57:56.436Z,11.30
2019-05-25T05:00:26.116Z,11.30
2019-05-25T05:02:55.777Z,11.50
2019-05-25T05:05:25.383Z,11.60
2019-05-25T05:07:55.015Z,11.60
2019-05-25T05:10:24.664Z,11.70
2019-05-25T05:12:54.297Z,11.80
2019-05-25T05:15:23.911Z,12.00
2019-05-25T05:17:53.524Z,12.10
2019-05-25T05:20:23.194Z,12.20
2019-05-25T05:22:52.838Z,12.20
2019-05-25T05:25:22.514Z,12.20
2019-05-25T05:27:52.149Z,12.30
2019-05-25T05:30:31.674Z,12.40
2019-05-25T05:33:01.398Z,12.50
2019-05-25T05:35:32.921Z,12.70
2019-05-25T05:38:05.551Z,12.90
2019-05-25T05:40:36.389Z,13.10
2019-05-25T05:43:10.292Z,13.20
2019-05-25T05:45:43.196Z,13.20
2019-05-25T05:48:13.752Z,13.30
2019-05-25T05:50:45.119Z,13.50
2019-05-25T05:53:14.744Z,13.70
2019-05-25T05:55:44.344Z,13.80
2019-05-25T05:58:13.947Z,13.90
2019-05-25T06:00:43.603Z,14.10
2019-05-25T06:03:13.209Z,14.30
2019-05-25T06:05:42.962Z,14.50
2019-05-25T06:08:12.595Z,14.50
2019-05-25T06:10:42.181Z,14.70
2019-05-25T06:13:11.839Z,14.80
2019-05-25T06:15:41.436Z,15.00
2019-05-25T06:18:11.073Z,15.10
2019-05-25T06:20:40.727Z,15.40
2019-05-25T06:23:12.507Z,15.70
2019-05-25T06:25:41.809Z,15.70
2019-05-25T06:28:11.482Z,15.80
2019-05-25T06:30:41.100Z,15.80
2019-05-25T06:33:10.740Z,15.90
2019-05-25T06:35:40.378Z,16.10
2019-05-25T06:38:10.028Z,16.10
2019-05-25T06:40:39.696Z,16.20
2019-05-25T06:43:09.310Z,16.40
2019-05-25T06:45:38.926Z,16.60
2019-05-25T06:48:08.583Z,16.70
2019-05-25T06:50:38.195Z,16.80
2019-05-25T06:53:07.859Z,17.00
2019-05-25T06:55:37.478Z,17.20
2019-05-25T06:58:07.126Z,17.30
2019-05-25T07:00:36.579Z,17.40
2019-05-25T07:03:06.267Z,17.30
2019-05-25T07:05:35.740Z,17.50
2019-05-25T07:08:05.204Z,17.70
2019-05-25T07:10:34.656Z,17.70
2019-05-25T07:13:04.366Z,18.00
2019-05-25T07:15:33.827Z,18.30
2019-05-25T07:18:03.272Z,18.30
2019-05-25T07:20:32.809Z,18.60
2019-05-25T07:23:02.259Z,18.90
2019-05-25T07:25:31.843Z,18.80
2019-05-25T07:28:01.302Z,18.80
2019-05-25T07:30:30.772Z,18.80
2019-05-25T07:33:09.178Z,18.80
2019-05-25T07:35:38.809Z,19.00
2019-05-25T07:38:08.468Z,19.30
2019-05-25T07:40:37.936Z,19.20
2019-05-25T07:43:07.421Z,19.40
2019-05-25T07:45:39.863Z,19.70
2019-05-25T07:48:09.348Z,19.90
2019-05-25T07:50:38.843Z,19.90
2019-05-25T07:53:08.362Z,19.30
2019-05-25T07:55:37.993Z,19.50
2019-05-25T07:58:17.606Z,19.50
2019-05-25T08:00:38.638Z,19.50
2019-05-25T08:03:08.150Z,19.50
2019-05-25T08:05:37.598Z,19.90
2019-05-25T08:08:07.083Z,19.90
2019-05-25T08:10:36.617Z,19.90
2019-05-25T08:13:06.077Z,19.80
2019-05-25T08:15:35.556Z,19.90
2019-05-25T08:18:05.089Z,19.90
2019-05-25T08:20:34.567Z,20.00
2019-05-25T08:23:04.056Z,20.10
2019-05-25T08:25:33.567Z,20.40
2019-05-25T08:28:03.056Z,20.30
2019-05-25T08:30:32.558Z,20.00
2019-05-25T08:33:02.009Z,20.30
2019-05-25T08:35:32.081Z,20.60
2019-05-25T08:38:01.531Z,20.60
2019-05-25T08:40:31.214Z,20.70
2019-05-25T08:43:00.669Z,20.70
2019-05-25T08:45:30.449Z,20.60
2019-05-25T08:47:59.880Z,20.40
2019-05-25T08:50:37.718Z,20.50
2019-05-25T08:53:00.482Z,20.50
2019-05-25T08:55:29.976Z,20.50
2019-05-25T08:57:59.444Z,20.70
2019-05-25T09:00:28.950Z,20.70
2019-05-25T09:02:58.412Z,20.40
2019-05-25T09:05:27.881Z,20.40
2019-05-25T09:07:57.346Z,20.60
2019-05-25T09:10:26.836Z,20.70
2019-05-25T09:12:56.284Z,20.60
2019-05-25T09:15:25.774Z,20.80
2019-05-25T09:17:55.333Z,21.00
2019-05-25T09:20:24.828Z,20.90
2019-05-25T09:22:54.338Z,21.00
2019-05-25T09:25:23.833Z,21.10
2019-05-25T09:27:53.271Z,21.10
2019-05-25T09:30:22.780Z,21.40
2019-05-25T09:32:52.245Z,21.00
2019-05-25T09:35:23.039Z,21.10
2019-05-25T09:37:52.684Z,21.10
2019-05-25T09:40:22.372Z,21.10
2019-05-25T09:42:51.910Z,21.10
2019-05-25T09:45:21.376Z,21.10
2019-05-25T09:47:50.872Z,21.10
2019-05-25T09:50:20.434Z,21.00
2019-05-25T09:52:49.946Z,21.00
2019-05-25T09:55:19.398Z,21.00
2019-05-25T09:57:48.895Z,21.20
2019-05-25T10:00:19.004Z,21.20
2019-05-25T10:02:48.523Z,21.20
2019-05-25T10:05:18.221Z,21.50
2019-05-25T10:07:47.677Z,21.60
2019-05-25T10:10:17.753Z,21.80
2019-05-25T10:12:47.237Z,21.70
2019-05-25T10:15:17.350Z,21.60
2019-05-25T10:17:46.859Z,21.50
2019-05-25T10:20:16.617Z,21.50
2019-05-25T10:22:46.107Z,21.70
2019-05-25T10:25:15.976Z,21.80
2019-05-25T10:27:45.468Z,21.50
2019-05-25T10:30:15.132Z,21.80
2019-05-25T10:32:44.663Z,21.80
2019-05-25T10:35:15.822Z,22.10
2019-05-25T10:37:45.322Z,22.30
2019-05-25T10:40:14.946Z,22.00
2019-05-25T10:42:44.396Z,22.30
2019-05-25T10:45:14.025Z,22.30
2019-05-25T10:47:43.476Z,21.80
2019-05-25T10:50:13.378Z,21.90
2019-05-25T10:52:42.868Z,21.90
2019-05-25T10:55:14.016Z,21.90
2019-05-25T10:57:43.614Z,22.10
2019-05-25T11:00:13.677Z,21.90
2019-05-25T11:02:43.128Z,21.60
2019-05-25T11:05:14.092Z,21.50
2019-05-25T11:07:43.549Z,21.50
2019-05-25T11:10:13.556Z,21.80
2019-05-25T11:12:43.126Z,21.90
2019-05-25T11:15:13.300Z,21.80
2019-05-25T11:17:42.835Z,21.70
2019-05-25T11:20:12.391Z,21.40
2019-05-25T11:22:42.028Z,21.40
2019-05-25T11:25:12.097Z,21.90
2019-05-25T11:27:41.627Z,21.70
2019-05-25T11:30:11.704Z,21.80
2019-05-25T11:32:42.176Z,21.90
2019-05-25T11:35:11.728Z,22.10
2019-05-25T11:37:41.256Z,22.00
2019-05-25T11:40:11.105Z,22.10
2019-05-25T11:42:40.576Z,22.00
2019-05-25T11:45:11.292Z,22.00
2019-05-25T11:47:40.804Z,21.90
2019-05-25T11:50:10.693Z,22.00
2019-05-25T11:52:40.530Z,22.30
2019-05-25T11:55:11.981Z,22.60
2019-05-25T11:57:41.456Z,23.10
2019-05-25T12:00:23.839Z,23.00
2019-05-25T12:02:42.708Z,23.10
2019-05-25T12:05:12.312Z,23.10
2019-05-25T12:07:44.722Z,23.40
2019-05-25T12:10:14.729Z,23.10
2019-05-25T12:12:44.202Z,23.20
2019-05-25T12:15:14.950Z,23.60
2019-05-25T12:17:44.628Z,23.90
2019-05-25T12:20:14.820Z,23.20
2019-05-25T12:22:44.308Z,23.30
2019-05-25T12:25:13.957Z,24.10
2019-05-25T12:27:43.507Z,24.50
2019-05-25T12:30:13.493Z,24.70
2019-05-25T12:32:43.242Z,24.40
2019-05-25T12:35:13.061Z,24.60
2019-05-25T12:37:42.567Z,24.80
2019-05-25T12:40:12.236Z,24.40
2019-05-25T12:42:45.530Z,24.20
2019-05-25T12:45:13.570Z,24.10
2019-05-25T12:47:43.044Z,24.30
2019-05-25T12:50:12.957Z,24.20
2019-05-25T12:52:42.388Z,23.70
2019-05-25T12:55:12.181Z,24.20
2019-05-25T12:57:41.685Z,24.60
2019-05-25T13:00:15.922Z,25.10
2019-05-25T13:02:42.516Z,25.50
2019-05-25T13:05:12.018Z,25.10
2019-05-25T13:07:41.467Z,24.60
2019-05-25T13:10:11.145Z,25.10
2019-05-25T13:12:40.649Z,25.30
2019-05-25T13:15:10.311Z,24.70
2019-05-25T13:17:39.786Z,25.20
2019-05-25T13:20:09.239Z,25.90
2019-05-25T13:22:38.719Z,25.50
2019-05-25T13:25:08.414Z,25.00
2019-05-25T13:27:37.899Z,25.00
2019-05-25T13:30:08.169Z,25.20
2019-05-25T13:32:37.665Z,25.80
2019-05-25T13:35:26.212Z,26.50
2019-05-25T13:38:14.745Z,26.60
2019-05-25T13:41:03.290Z,26.30
2019-05-25T13:43:32.819Z,27.60
2019-05-25T13:46:21.375Z,27.00
2019-05-25T13:49:09.899Z,26.90
2019-05-25T13:54:52.024Z,26.60
2019-05-25T13:57:21.488Z,27.00
2019-05-25T14:00:10.709Z,27.10
2019-05-25T14:06:06.811Z,25.70
2019-05-25T14:08:55.334Z,26.30
2019-05-25T14:11:24.894Z,26.90
2019-05-25T14:14:13.368Z,27.20
2019-05-25T14:17:01.936Z,26.80
2019-05-25T14:19:50.448Z,26.80
2019-05-25T14:22:20.060Z,26.20
2019-05-25T14:25:27.597Z,25.80
2019-05-25T14:28:09.124Z,25.30
2019-05-25T14:30:50.757Z,24.30
2019-05-25T14:33:20.304Z,24.10
2019-05-25T14:36:08.824Z,24.00
2019-05-25T14:38:57.463Z,23.60
2019-05-25T14:41:26.913Z,23.30
2019-05-25T14:44:08.320Z,23.10
2019-05-25T14:46:48.958Z,23.00
2019-05-25T14:49:29.817Z,23.20
2019-05-25T14:52:11.236Z,23.30
2019-05-25T14:54:52.712Z,23.00
2019-05-25T14:57:22.255Z,22.80
2019-05-25T14:59:51.744Z,22.50
2019-05-25T15:02:40.341Z,22.20
2019-05-25T15:05:28.854Z,22.10
2019-05-25T15:08:17.409Z,22.00
2019-05-25T15:10:46.940Z,21.60
2019-05-25T15:13:35.448Z,21.40
2019-05-25T15:16:24.052Z,21.00
2019-05-25T15:21:42.159Z,20.40
2019-05-25T15:27:11.534Z,19.80
2019-05-25T15:29:52.358Z,19.70
2019-05-25T15:32:21.823Z,19.60
2019-05-25T15:34:51.387Z,19.50
2019-05-25T15:37:40.018Z,19.20
2019-05-25T15:40:28.568Z,19.00
2019-05-25T15:43:10.023Z,18.40
2019-05-25T15:45:50.883Z,17.90
2019-05-25T15:48:31.542Z,17.30
2019-05-25T15:51:11.170Z,16.90
2019-05-25T15:53:59.697Z,16.50
2019-05-25T15:56:48.245Z,16.10
2019-05-25T15:59:36.782Z,15.80
2019-05-25T16:05:32.921Z,15.60
2019-05-25T16:08:21.903Z,15.40
2019-05-25T16:10:51.555Z,15.20
2019-05-25T16:13:40.122Z,15.20
2019-05-25T16:16:30.173Z,15.20
2019-05-25T16:19:18.837Z,15.20
2019-05-25T16:21:48.340Z,15.20
2019-05-25T16:24:36.852Z,15.20
2019-05-25T16:27:25.375Z,15.00
2019-05-25T16:30:13.891Z,14.90
2019-05-25T16:35:33.575Z,14.70
2019-05-25T16:38:22.356Z,14.70
2019-05-25T16:40:51.853Z,14.80
2019-05-25T16:43:40.394Z,14.70
2019-05-25T16:46:21.769Z,14.70
2019-05-25T16:48:51.304Z,14.80
2019-05-25T16:51:39.834Z,14.90
2019-05-25T16:54:28.402Z,14.90
2019-05-25T16:57:16.920Z,14.90
2019-05-25T16:59:46.428Z,15.00
2019-05-25T17:02:34.940Z,15.00
2019-05-25T17:05:23.540Z,15.00
2019-05-25T17:07:53.004Z,15.00
2019-05-25T17:10:41.552Z,15.10
2019-05-25T17:13:30.107Z,15.20
2019-05-25T17:16:18.644Z,15.20
2019-05-25T17:18:48.105Z,15.40
2019-05-25T17:21:36.665Z,15.50
2019-05-25T17:24:25.242Z,15.50
2019-05-25T17:26:54.821Z,15.60
2019-05-25T17:29:43.361Z,15.60
2019-05-25T17:32:31.969Z,15.60
2019-05-25T17:35:20.478Z,15.70
2019-05-25T17:38:09.148Z,15.80
2019-05-25T17:40:38.939Z,15.90
2019-05-25T17:43:27.512Z,15.90
2019-05-25T17:46:08.151Z,16.00
2019-05-25T17:48:37.680Z,16.10
2019-05-25T17:51:26.184Z,16.20
2019-05-25T17:54:14.721Z,16.20
2019-05-25T18:03:09.929Z,16.50
2019-05-25T18:05:39.485Z,16.50
2019-05-25T18:08:28.032Z,16.50
2019-05-25T18:11:16.543Z,16.50
2019-05-25T18:14:24.291Z,16.50
2019-05-25T18:17:12.801Z,16.40
2019-05-25T18:19:42.299Z,16.30
2019-05-25T18:22:11.809Z,16.30
2019-05-25T18:25:00.368Z,16.10
2019-05-25T18:27:48.888Z,16.00
2019-05-25T18:30:19.025Z,15.90
2019-05-25T18:33:07.689Z,15.80
2019-05-25T18:38:50.619Z,15.80
2019-05-25T18:44:14.503Z,15.60
2019-05-25T18:46:56.195Z,15.60
2019-05-25T18:49:37.627Z,15.40
2019-05-25T18:52:07.254Z,15.30
2019-05-25T18:54:55.867Z,15.10
2019-05-25T18:57:44.372Z,15.00
2019-05-25T19:00:14.097Z,14.90
2019-05-25T19:03:03.016Z,14.80
2019-05-25T19:05:32.513Z,14.80
2019-05-25T19:08:21.010Z,14.70
2019-05-25T19:11:09.581Z,14.60
2019-05-25T19:13:58.127Z,14.60
2019-05-25T19:16:46.712Z,14.50
2019-05-25T19:19:16.134Z,14.50
2019-05-25T19:22:04.684Z,14.40
2019-05-25T19:24:53.188Z,14.30
2019-05-25T19:27:41.737Z,14.20
2019-05-25T19:30:12.095Z,14.10
2019-05-25T19:33:00.602Z,14.00
2019-05-25T19:35:30.109Z,14.00
2019-05-25T19:37:59.576Z,14.00
2019-05-25T19:40:29.084Z,13.90
2019-05-25T19:42:58.588Z,13.80
2019-05-25T19:45:28.075Z,13.80
2019-05-25T19:47:57.520Z,13.70
2019-05-25T19:50:27.065Z,13.60
2019-05-25T19:52:56.529Z,13.60
2019-05-25T19:55:26.029Z,13.50
2019-05-25T19:57:55.552Z,13.50
2019-05-25T20:00:25.207Z,13.50
2019-05-25T20:02:54.724Z,13.50
2019-05-25T20:05:24.266Z,13.40
2019-05-25T20:07:53.799Z,13.40
2019-05-25T20:10:23.670Z,13.40
2019-05-25T20:12:53.167Z,13.30
2019-05-25T20:15:22.698Z,13.30
2019-05-25T20:17:52.162Z,13.20
2019-05-25T20:20:21.714Z,13.20
2019-05-25T20:22:51.205Z,13.10
2019-05-25T20:25:20.670Z,13.00
2019-05-25T20:27:50.163Z,13.00
2019-05-25T20:30:19.615Z,13.00
2019-05-25T20:32:49.097Z,12.90
2019-05-25T20:35:31.957Z,12.80
2019-05-25T20:37:53.602Z,12.80
2019-05-25T20:40:23.057Z,12.80
2019-05-25T20:42:52.545Z,12.70
2019-05-25T20:45:22.000Z,12.70
2019-05-25T20:47:51.474Z,12.60
2019-05-25T20:50:20.968Z,12.60
2019-05-25T20:52:56.742Z,12.60
2019-05-25T20:55:26.258Z,12.50
2019-05-25T20:57:55.737Z,12.50
2019-05-25T21:00:25.304Z,12.50
2019-05-25T21:03:05.243Z,12.40
2019-05-25T21:05:25.902Z,12.60
2019-05-25T21:07:55.380Z,12.60
2019-05-25T21:10:24.860Z,12.50
2019-05-25T21:12:54.341Z,12.50
2019-05-25T21:15:25.248Z,12.50
2019-05-25T21:17:54.765Z,12.40
2019-05-25T21:20:24.241Z,12.30
2019-05-25T21:22:53.750Z,12.30
2019-05-25T21:25:25.678Z,12.20
2019-05-25T21:27:56.943Z,12.20
2019-05-25T21:30:27.756Z,12.10
2019-05-25T21:32:58.972Z,12.00
2019-05-25T21:35:29.362Z,11.90
2019-05-25T21:37:59.796Z,11.90
2019-05-25T21:40:31.117Z,11.90
2019-05-25T21:43:01.754Z,11.90
2019-05-25T21:45:32.618Z,11.90
2019-05-25T21:48:03.893Z,11.80
2019-05-25T21:50:34.482Z,11.80
2019-05-25T21:53:05.825Z,11.70
2019-05-25T21:55:37.249Z,11.70
2019-05-25T21:58:08.192Z,11.60
2019-05-25T22:00:40.990Z,11.60
2019-05-25T22:03:11.837Z,11.50
2019-05-25T22:05:41.321Z,11.50
2019-05-25T22:08:10.808Z,11.50
2019-05-25T22:10:40.260Z,11.40
2019-05-25T22:13:24.887Z,11.40
2019-05-25T22:15:40.853Z,11.40
2019-05-25T22:18:10.344Z,11.50
2019-05-25T22:20:39.812Z,11.50
2019-05-25T22:23:09.268Z,11.50
2019-05-25T22:25:38.766Z,11.50
2019-05-25T22:28:08.224Z,11.50
2019-05-25T22:30:37.725Z,11.60
2019-05-25T22:33:07.173Z,11.60
2019-05-25T22:35:36.664Z,11.60
2019-05-25T22:38:06.152Z,11.70
2019-05-25T22:40:35.606Z,11.60
2019-05-25T22:43:05.070Z,11.70
2019-05-25T22:45:34.522Z,11.70
2019-05-25T22:48:04.058Z,11.60
2019-05-25T22:50:33.512Z,11.60
2019-05-25T22:53:03.060Z,11.60
2019-05-25T22:55:32.495Z,11.60
2019-05-25T22:58:02.070Z,11.70
2019-05-25T23:00:31.529Z,11.60
2019-05-25T23:03:01.003Z,11.60
2019-05-25T23:05:30.489Z,11.70
2019-05-25T23:07:59.937Z,11.80
2019-05-25T23:10:29.440Z,11.70
2019-05-25T23:12:58.897Z,11.70
2019-05-25T23:15:28.391Z,11.70
2019-05-25T23:17:57.852Z,11.80
2019-05-25T23:20:27.335Z,11.80
2019-05-25T23:22:56.798Z,11.80
2019-05-25T23:25:26.239Z,11.80
2019-05-25T23:27:55.712Z,11.80
2019-05-25T23:30:25.248Z,11.80
2019-05-25T23:32:54.724Z,11.80
2019-05-25T23:35:24.175Z,11.80
2019-05-25T23:37:53.673Z,11.80
2019-05-25T23:40:23.115Z,11.80
2019-05-25T23:42:52.603Z,11.90
2019-05-25T23:45:22.291Z,11.90
2019-05-25T23:47:51.777Z,11.90
2019-05-25T23:50:21.331Z,11.90
2019-05-25T23:52:50.880Z,12.00
2019-05-25T23:55:20.342Z,12.00
2019-05-25T23:57:49.787Z,12.00
